Time,TemperatureF,DewpointF,PressureIn,WindDirection,WindDirectionDegrees,WindSpeedMPH,WindSpeedGustMPH,Humidity,HourlyPrecipIn,Conditions,Clouds,dailyrainin,SolarRadiationWatts/m^2,SoftwareType,DateUTC
2013-05-13 00:00:00,49.2,44.3,29.71,SW,214,0.0,0.0,83,0.00,,,0.00,0,Wunderground v.1.15,2013-05-13 04:00:00,
2013-05-13 00:10:00,48.6,44.0,29.71,SW,214,0.0,0.0,84,0.00,,,0.00,0,Wunderground v.1.15,2013-05-13 04:10:00,
2013-05-13 00:20:00,48.0,44.0,29.72,SSW,213,0.0,0.0,86,0.00,,,0.00,0,Wunderground v.1.15,2013-05-13 04:20:00,
2013-05-13 00:30:00,47.2,43.5,29.72,SW,214,0.0,0.0,87,0.00,,,0.00,0,Wunderground v.1.15,2013-05-13 04:30:00,
2013-05-13 00:40:00,46.6,43.5,29.72,SW,214,0.0,3.0,89,0.00,,,0.00,0,Wunderground v.1.15,2013-05-13 04:40:00,
2013-05-13 00:50:00,46.3,43.2,29.73,SW,214,0.0,3.0,89,0.00,,,0.00,0,Wunderground v.1.15,2013-05-13 04:50:00,
2013-05-13 01:00:00,45.8,42.4,29.73,SW,214,0.0,0.0,88,0.00,,,0.00,0,Wunderground v.1.15,2013-05-13 05:00:00,
2013-05-13 01:10:00,46.1,41.8,29.74,SW,225,1.0,1.0,85,0.00,,,0.00,0,Wunderground v.1.15,2013-05-13 05:10:00,
2013-05-13 01:20:00,46.3,41.4,29.74,SSW,194,1.0,3.0,83,0.00,,,0.00,0,Wunderground v.1.15,2013-05-13 05:20:00,
2013-05-13 01:30:00,46.5,41.0,29.74,SSW,194,1.0,1.0,81,0.00,,,0.00,0,Wunderground v.1.15,2013-05-13 05:30:00,
2013-05-13 01:40:00,46.7,39.9,29.73,SSW,203,2.0,4.0,77,0.00,,,0.00,0,Wunderground v.1.15,2013-05-13 05:40:00,
2013-05-13 01:50:00,47.0,39.1,29.74,SSW,205,3.0,4.0,74,0.00,,,0.00,0,Wunderground v.1.15,2013-05-13 05:50:00,
2013-05-13 02:00:00,46.8,39.6,29.74,SW,221,2.0,2.0,76,0.00,,,0.00,0,Wunderground v.1.15,2013-05-13 06:00:00,
2013-05-13 02:10:00,46.9,37.6,29.74,SW,225,4.0,10.0,70,0.00,,,0.00,0,Wunderground v.1.15,2013-05-13 06:10:00,
2013-05-13 02:20:00,47.6,34.4,29.75,South,186,7.0,8.0,60,0.00,,,0.00,0,Wunderground v.1.15,2013-05-13 06:20:00,
2013-05-13 02:30:00,47.6,32.7,29.75,SSW,197,7.0,9.0,56,0.00,,,0.00,0,Wunderground v.1.15,2013-05-13 06:30:00,
2013-05-13 02:40:00,47.8,31.5,29.75,SSW,196,9.0,11.0,53,0.00,,,0.00,0,Wunderground v.1.15,2013-05-13 06:40:00,
2013-05-13 02:50:00,47.7,30.9,29.75,South,178,8.0,8.0,52,0.00,,,0.00,0,Wunderground v.1.15,2013-05-13 06:50:00,
2013-05-13 03:00:00,47.5,31.2,29.75,SW,217,7.0,7.0,53,0.00,,,0.00,0,Wunderground v.1.15,2013-05-13 07:00:00,
2013-05-13 03:10:00,47.3,31.0,29.76,SW,230,6.0,16.0,53,0.00,,,0.00,0,Wunderground v.1.15,2013-05-13 07:10:00,
2013-05-13 03:20:00,47.4,31.1,29.76,SSW,207,7.0,7.0,53,0.00,,,0.00,0,Wunderground v.1.15,2013-05-13 07:20:00,
2013-05-13 03:30:00,47.1,31.3,29.76,SW,225,5.0,5.0,54,0.00,,,0.00,0,Wunderground v.1.15,2013-05-13 07:30:00,
2013-05-13 03:40:00,46.7,32.3,29.76,SW,232,3.0,16.0,57,0.00,,,0.00,0,Wunderground v.1.15,2013-05-13 07:40:00,
2013-05-13 03:50:00,46.4,32.8,29.76,South,187,4.0,16.0,59,0.00,,,0.00,0,Wunderground v.1.15,2013-05-13 07:50:00,
2013-05-13 04:00:00,46.1,32.6,29.77,SW,231,4.0,6.0,59,0.00,,,0.00,0,Wunderground v.1.15,2013-05-13 08:00:00,
2013-05-13 04:10:00,46.1,33.0,29.77,SW,221,5.0,8.0,60,0.00,,,0.00,0,Wunderground v.1.15,2013-05-13 08:10:00,
2013-05-13 04:20:00,46.0,33.3,29.77,South,184,6.0,8.0,61,0.00,,,0.00,0,Wunderground v.1.15,2013-05-13 08:20:00,
2013-05-13 04:30:00,46.0,32.9,29.77,SW,225,6.0,6.0,60,0.00,,,0.00,0,Wunderground v.1.15,2013-05-13 08:30:00,
2013-05-13 04:40:00,45.9,32.8,29.77,SSW,210,5.0,14.0,60,0.00,,,0.00,0,Wunderground v.1.15,2013-05-13 08:40:00,
2013-05-13 04:50:00,45.6,33.7,29.78,SW,231,4.0,4.0,63,0.00,,,0.00,0,Wunderground v.1.15,2013-05-13 08:50:00,
2013-05-13 05:00:00,45.3,33.8,29.79,SSW,213,4.0,4.0,64,0.00,,,0.00,0,Wunderground v.1.15,2013-05-13 09:00:00,
2013-05-13 05:10:00,45.1,33.6,29.79,SW,232,3.0,3.0,64,0.00,,,0.00,5,Wunderground v.1.15,2013-05-13 09:10:00,
2013-05-13 05:20:00,44.9,33.5,29.80,SSW,212,4.0,4.0,64,0.00,,,0.00,9,Wunderground v.1.15,2013-05-13 09:20:00,
2013-05-13 05:30:00,44.8,33.0,29.80,SSE,157,4.0,4.0,63,0.00,,,0.00,12,Wunderground v.1.15,2013-05-13 09:30:00,
2013-05-13 05:40:00,44.9,33.1,29.80,South,188,3.0,13.0,63,0.00,,,0.00,16,Wunderground v.1.15,2013-05-13 09:40:00,
2013-05-13 05:50:00,45.1,33.2,29.80,SW,216,5.0,13.0,63,0.00,,,0.00,18,Wunderground v.1.15,2013-05-13 09:50:00,
2013-05-13 06:00:00,45.2,32.5,29.80,WSW,253,5.0,5.0,61,0.00,,,0.00,21,Wunderground v.1.15,2013-05-13 10:00:00,
2013-05-13 06:10:00,45.5,33.2,29.81,SW,229,6.0,6.0,62,0.00,,,0.00,23,Wunderground v.1.15,2013-05-13 10:10:00,
2013-05-13 06:20:00,45.5,34.0,29.81,SSW,202,4.0,4.0,64,0.00,,,0.00,25,Wunderground v.1.15,2013-05-13 10:20:00,
2013-05-13 06:30:00,45.6,34.5,29.81,SSW,212,5.0,5.0,65,0.00,,,0.00,26,Wunderground v.1.15,2013-05-13 10:30:00,
2013-05-13 06:40:00,45.6,34.1,29.81,SSW,192,4.0,4.0,64,0.00,,,0.00,28,Wunderground v.1.15,2013-05-13 10:40:00,
2013-05-13 06:50:00,45.6,33.3,29.82,SSW,209,5.0,5.0,62,0.00,,,0.00,30,Wunderground v.1.15,2013-05-13 10:50:00,
2013-05-13 07:00:00,45.8,33.1,29.82,SW,223,6.0,9.0,61,0.00,,,0.00,30,Wunderground v.1.15,2013-05-13 11:00:00,
2013-05-13 07:10:00,45.8,32.7,29.82,SW,228,8.0,10.0,60,0.00,,,0.00,32,Wunderground v.1.15,2013-05-13 11:10:00,
2013-05-13 07:20:00,46.0,32.5,29.82,SSW,192,6.0,7.0,59,0.00,,,0.00,46,Wunderground v.1.15,2013-05-13 11:20:00,
2013-05-13 07:30:00,46.1,32.1,29.83,WSW,257,9.0,9.0,58,0.00,,,0.00,84,Wunderground v.1.15,2013-05-13 11:30:00,
2013-05-13 07:40:00,46.3,31.9,29.83,SW,215,9.0,11.0,57,0.00,,,0.00,35,Wunderground v.1.15,2013-05-13 11:40:00,
2013-05-13 07:50:00,46.3,32.7,29.84,WSW,244,8.0,11.0,59,0.00,,,0.00,308,Wunderground v.1.15,2013-05-13 11:50:00,
2013-05-13 08:00:00,46.4,31.1,29.85,SSW,193,9.0,18.0,55,0.00,,,0.00,40,Wunderground v.1.15,2013-05-13 12:00:00,
2013-05-13 08:10:00,46.5,31.2,29.85,SW,223,10.0,10.0,55,0.00,,,0.00,37,Wunderground v.1.15,2013-05-13 12:10:00,
2013-05-13 08:20:00,46.6,30.4,29.85,South,186,10.0,10.0,53,0.00,,,0.00,142,Wunderground v.1.15,2013-05-13 12:20:00,
2013-05-13 08:30:00,46.9,31.1,29.85,SW,215,10.0,10.0,54,0.00,,,0.00,70,Wunderground v.1.15,2013-05-13 12:30:00,
2013-05-13 08:40:00,47.2,31.8,29.85,South,190,9.0,9.0,55,0.00,,,0.00,151,Wunderground v.1.15,2013-05-13 12:40:00,
2013-05-13 08:50:00,47.5,32.6,29.86,SSW,211,7.0,7.0,56,0.00,,,0.00,134,Wunderground v.1.15,2013-05-13 12:50:00,
2013-05-13 09:00:00,47.9,32.9,29.85,SW,221,6.0,6.0,56,0.00,,,0.00,62,Wunderground v.1.15,2013-05-13 13:00:00,
2013-05-13 09:10:00,48.3,32.9,29.85,SW,214,7.0,7.0,55,0.00,,,0.00,81,Wunderground v.1.15,2013-05-13 13:10:00,
2013-05-13 09:20:00,48.5,33.1,29.85,SSW,201,6.0,7.0,55,0.00,,,0.00,545,Wunderground v.1.15,2013-05-13 13:20:00,
2013-05-13 09:30:00,48.4,33.4,29.86,SSW,210,7.0,7.0,56,0.00,,,0.00,183,Wunderground v.1.15,2013-05-13 13:30:00,
2013-05-13 09:40:00,49.1,32.2,29.85,South,186,6.0,22.0,52,0.00,,,0.00,114,Wunderground v.1.15,2013-05-13 13:40:00,
2013-05-13 09:50:00,49.2,34.2,29.85,South,191,5.0,22.0,56,0.00,,,0.00,779,Wunderground v.1.15,2013-05-13 13:50:00,
2013-05-13 10:00:00,49.4,33.4,29.86,SSW,210,7.0,7.0,54,0.00,,,0.00,272,Wunderground v.1.15,2013-05-13 14:00:00,
2013-05-13 10:10:00,49.4,31.5,29.86,SSW,194,8.0,8.0,50,0.00,,,0.00,810,Wunderground v.1.15,2013-05-13 14:10:00,
2013-05-13 10:20:00,49.7,31.3,29.86,SSW,196,9.0,9.0,49,0.00,,,0.00,844,Wunderground v.1.15,2013-05-13 14:20:00,
2013-05-13 10:30:00,50.0,31.6,29.87,WSW,244,8.0,8.0,49,0.00,,,0.00,817,Wunderground v.1.15,2013-05-13 14:30:00,
2013-05-13 10:50:00,50.5,31.0,29.87,SSW,205,9.0,16.0,47,0.00,,,0.00,70,Wunderground v.1.15,2013-05-13 14:50:00,
2013-05-13 10:52:00,50.3,30.8,29.87,WSW,252,8.0,8.0,47,0.00,,,0.00,200,Wunderground v.1.15,2013-05-13 14:52:00,
2013-05-13 11:00:00,50.9,31.9,29.87,SSW,202,7.0,15.0,48,0.00,,,0.00,74,Wunderground v.1.15,2013-05-13 15:00:00,
2013-05-13 11:10:00,51.2,31.6,29.88,SSW,202,7.0,10.0,47,0.00,,,0.00,902,Wunderground v.1.15,2013-05-13 15:10:00,
2013-05-13 11:20:00,51.9,32.3,29.88,SSW,193,7.0,10.0,47,0.00,,,0.00,911,Wunderground v.1.15,2013-05-13 15:20:00,
2013-05-13 11:30:00,51.9,30.6,29.88,South,174,8.0,8.0,44,0.00,,,0.00,1004,Wunderground v.1.15,2013-05-13 15:30:00,
2013-05-13 11:40:00,52.0,31.8,29.88,South,186,8.0,8.0,46,0.00,,,0.00,1037,Wunderground v.1.15,2013-05-13 15:40:00,
2013-05-13 11:50:00,51.9,32.8,29.88,WSW,252,7.0,7.0,48,0.00,,,0.00,276,Wunderground v.1.15,2013-05-13 15:50:00,
2013-05-13 12:00:00,52.2,33.1,29.88,SW,235,6.0,6.0,48,0.00,,,0.00,1276,Wunderground v.1.15,2013-05-13 16:00:00,
2013-05-13 12:10:00,53.1,32.3,29.88,SW,227,7.0,7.0,45,0.00,,,0.00,1062,Wunderground v.1.15,2013-05-13 16:10:00,
2013-05-13 12:20:00,53.1,32.3,29.88,SSW,210,8.0,10.0,45,0.00,,,0.00,1018,Wunderground v.1.15,2013-05-13 16:20:00,
2013-05-13 12:30:00,53.3,32.5,29.88,SW,223,6.0,7.0,45,0.00,,,0.00,246,Wunderground v.1.15,2013-05-13 16:30:00,
2013-05-13 12:50:00,53.8,34.6,29.88,SW,232,5.0,19.0,48,0.00,,,0.00,1016,Wunderground v.1.15,2013-05-13 16:50:00,
2013-05-13 12:52:00,53.3,33.0,29.87,SW,225,6.0,19.0,46,0.00,,,0.00,304,Wunderground v.1.15,2013-05-13 16:52:00,
2013-05-13 13:00:00,53.8,31.8,29.88,SSW,199,9.0,9.0,43,0.00,,,0.00,947,Wunderground v.1.15,2013-05-13 17:00:00,
2013-05-13 13:10:00,54.2,32.7,29.88,SSW,202,8.0,9.0,44,0.00,,,0.00,949,Wunderground v.1.15,2013-05-13 17:10:00,
2013-05-13 13:20:00,54.9,33.4,29.88,SSW,196,5.0,5.0,44,0.00,,,0.00,580,Wunderground v.1.15,2013-05-13 17:20:00,
2013-05-13 13:30:00,54.5,36.7,29.89,South,180,5.0,5.0,51,0.00,,,0.00,427,Wunderground v.1.15,2013-05-13 17:30:00,
2013-05-13 13:40:00,54.0,38.2,29.88,SSE,164,4.0,4.0,55,0.00,,,0.00,1086,Wunderground v.1.15,2013-05-13 17:40:00,
2013-05-13 14:00:00,54.5,37.7,29.89,SSW,194,5.0,5.0,53,0.00,,,0.00,889,Wunderground v.1.15,2013-05-13 18:00:00,
2013-05-13 14:02:00,53.6,38.3,29.89,South,185,4.0,17.0,56,0.00,,,0.00,445,Wunderground v.1.15,2013-05-13 18:02:00,
2013-05-13 14:10:00,54.9,37.6,29.89,SSW,202,4.0,6.0,52,0.00,,,0.00,884,Wunderground v.1.15,2013-05-13 18:10:00,
2013-05-13 14:20:00,55.1,37.3,29.89,SE,138,5.0,5.0,51,0.00,,,0.00,874,Wunderground v.1.15,2013-05-13 18:20:00,
2013-05-13 14:30:00,55.3,38.0,29.89,SW,234,5.0,5.0,52,0.00,,,0.00,527,Wunderground v.1.15,2013-05-13 18:30:00,
2013-05-13 14:52:00,55.4,37.1,29.89,SSE,150,4.0,4.0,50,0.00,,,0.00,320,Wunderground v.1.15,2013-05-13 18:52:00,
2013-05-13 15:00:00,55.4,36.0,29.89,South,174,5.0,5.0,48,0.00,,,0.00,751,Wunderground v.1.15,2013-05-13 19:00:00,
2013-05-13 15:02:00,55.0,37.2,29.89,SSW,202,5.0,13.0,51,0.00,,,0.00,835,Wunderground v.1.15,2013-05-13 19:02:00,
2013-05-13 15:10:00,54.8,36.5,29.89,SW,215,6.0,6.0,50,0.00,,,0.00,724,Wunderground v.1.15,2013-05-13 19:10:00,
2013-05-13 15:30:00,54.4,37.6,29.88,SW,217,6.0,9.0,53,0.00,,,0.00,675,Wunderground v.1.15,2013-05-13 19:30:00,
2013-05-13 15:32:00,54.9,37.6,29.89,WSW,250,6.0,8.0,52,0.00,,,0.00,698,Wunderground v.1.15,2013-05-13 19:32:00,
2013-05-13 15:40:00,54.8,36.5,29.88,SW,232,7.0,15.0,50,0.00,,,0.00,649,Wunderground v.1.15,2013-05-13 19:40:00,
2013-05-13 15:50:00,54.8,34.4,29.88,South,189,6.0,6.0,46,0.00,,,0.00,633,Wunderground v.1.15,2013-05-13 19:50:00,
2013-05-13 16:10:00,55.0,36.7,29.89,South,176,6.0,6.0,50,0.00,,,0.00,603,Wunderground v.1.15,2013-05-13 20:10:00,
2013-05-13 16:12:00,55.1,36.3,29.88,SW,232,4.0,4.0,49,0.00,,,0.00,673,Wunderground v.1.15,2013-05-13 20:12:00,
2013-05-13 16:20:00,54.5,37.7,29.88,SSW,198,5.0,7.0,53,0.00,,,0.00,587,Wunderground v.1.15,2013-05-13 20:20:00,
2013-05-13 16:40:00,55.1,37.3,29.89,WSW,243,5.0,5.0,51,0.00,,,0.00,504,Wunderground v.1.15,2013-05-13 20:40:00,
2013-05-13 16:42:00,55.0,37.2,29.88,SSW,207,5.0,5.0,51,0.00,,,0.00,541,Wunderground v.1.15,2013-05-13 20:42:00,
2013-05-13 16:50:00,55.4,38.1,29.89,SSW,207,5.0,16.0,52,0.00,,,0.00,471,Wunderground v.1.15,2013-05-13 20:50:00,
2013-05-13 17:00:00,54.8,38.9,29.89,SW,218,4.0,7.0,55,0.00,,,0.00,452,Wunderground v.1.15,2013-05-13 21:00:00,
2013-05-13 17:10:00,53.6,38.3,29.89,ESE,123,4.0,4.0,56,0.00,,,0.00,141,Wunderground v.1.15,2013-05-13 21:10:00,
2013-05-13 17:20:00,53.5,39.1,29.89,SSE,154,3.0,3.0,58,0.00,,,0.00,109,Wunderground v.1.15,2013-05-13 21:20:00,
2013-05-13 17:30:00,52.6,39.5,29.89,SSE,164,4.0,5.0,61,0.00,,,0.00,174,Wunderground v.1.15,2013-05-13 21:30:00,
2013-05-13 17:40:00,53.4,39.9,29.89,South,189,3.0,12.0,60,0.00,,,0.00,359,Wunderground v.1.15,2013-05-13 21:40:00,
2013-05-13 18:00:00,52.0,39.0,29.89,SSW,198,2.0,2.0,61,0.00,,,0.00,104,Wunderground v.1.15,2013-05-13 22:00:00,
2013-05-13 18:02:00,53.0,39.0,29.89,SSW,201,4.0,4.0,59,0.00,,,0.00,104,Wunderground v.1.15,2013-05-13 22:02:00,
2013-05-13 18:10:00,51.9,39.3,29.89,SW,227,1.0,1.0,62,0.00,,,0.00,72,Wunderground v.1.15,2013-05-13 22:10:00,
2013-05-13 18:20:00,51.8,39.6,29.90,SSW,196,1.0,2.0,63,0.00,,,0.00,139,Wunderground v.1.15,2013-05-13 22:20:00,
2013-05-13 18:30:00,52.3,39.7,29.90,SW,214,2.0,4.0,62,0.00,,,0.00,141,Wunderground v.1.15,2013-05-13 22:30:00,
2013-05-13 18:50:00,52.2,38.3,29.90,SW,215,2.0,10.0,59,0.00,,,0.00,65,Wunderground v.1.15,2013-05-13 22:50:00,
2013-05-13 18:52:00,52.4,38.9,29.90,SW,234,3.0,3.0,60,0.00,,,0.00,72,Wunderground v.1.15,2013-05-13 22:52:00,
2013-05-13 19:12:00,52.4,33.8,29.91,SW,225,2.0,5.0,49,0.00,,,0.00,53,Wunderground v.1.15,2013-05-13 23:12:00,
2013-05-13 19:22:00,52.7,32.5,29.91,SW,233,3.0,4.0,46,0.00,,,0.00,42,Wunderground v.1.15,2013-05-13 23:22:00,
2013-05-13 19:32:00,52.6,31.8,29.91,SW,223,4.0,7.0,45,0.00,,,0.00,26,Wunderground v.1.15,2013-05-13 23:32:00,
2013-05-13 19:42:00,52.3,32.6,29.92,SSW,202,2.0,5.0,47,0.00,,,0.00,14,Wunderground v.1.15,2013-05-13 23:42:00,
2013-05-13 19:52:00,51.9,31.7,29.92,South,182,2.0,8.0,46,0.00,,,0.00,7,Wunderground v.1.15,2013-05-13 23:52:00,
2013-05-13 20:02:00,51.3,32.8,29.93,SW,217,1.0,1.0,49,0.00,,,0.00,0,Wunderground v.1.15,2013-05-14 00:02:00,
2013-05-13 20:12:00,50.4,34.4,29.94,West,269,0.0,0.0,54,0.00,,,0.00,0,Wunderground v.1.15,2013-05-14 00:12:00,
2013-05-13 20:22:00,49.7,33.7,29.94,SW,221,0.0,0.0,54,0.00,,,0.00,0,Wunderground v.1.15,2013-05-14 00:22:00,
2013-05-13 20:32:00,49.6,33.6,29.95,SW,221,0.0,0.0,54,0.00,,,0.00,0,Wunderground v.1.15,2013-05-14 00:32:00,
2013-05-13 20:42:00,49.4,34.3,29.95,SW,221,1.0,1.0,56,0.00,,,0.00,0,Wunderground v.1.15,2013-05-14 00:42:00,
2013-05-13 20:52:00,49.2,34.2,29.95,SW,221,0.0,12.0,56,0.00,,,0.00,0,Wunderground v.1.15,2013-05-14 00:52:00,
2013-05-13 21:02:00,49.1,34.5,29.95,SW,221,1.0,12.0,57,0.00,,,0.00,0,Wunderground v.1.15,2013-05-14 01:02:00,
2013-05-13 21:12:00,49.1,34.1,29.96,SW,221,1.0,1.0,56,0.00,,,0.00,0,Wunderground v.1.15,2013-05-14 01:12:00,
2013-05-13 21:22:00,49.1,34.1,29.96,SW,221,1.0,1.0,56,0.00,,,0.00,0,Wunderground v.1.15,2013-05-14 01:22:00,
2013-05-13 21:32:00,49.0,34.0,29.97,SW,217,1.0,1.0,56,0.00,,,0.00,0,Wunderground v.1.15,2013-05-14 01:32:00,
2013-05-13 21:42:00,48.7,35.4,29.98,SW,217,0.0,0.0,60,0.00,,,0.00,0,Wunderground v.1.15,2013-05-14 01:42:00,
2013-05-13 21:52:00,48.3,34.6,29.98,SW,217,1.0,5.0,59,0.00,,,0.00,0,Wunderground v.1.15,2013-05-14 01:52:00,
2013-05-13 22:02:00,48.3,33.8,29.98,SSW,208,2.0,2.0,57,0.00,,,0.00,0,Wunderground v.1.15,2013-05-14 02:02:00,
2013-05-13 22:12:00,48.3,33.8,29.98,SSW,213,2.0,2.0,57,0.00,,,0.00,0,Wunderground v.1.15,2013-05-14 02:12:00,
2013-05-13 22:22:00,48.1,33.6,29.98,SSW,208,1.0,1.0,57,0.00,,,0.00,0,Wunderground v.1.15,2013-05-14 02:22:00,
2013-05-13 22:32:00,47.9,33.4,29.98,SSW,208,0.0,0.0,57,0.00,,,0.00,0,Wunderground v.1.15,2013-05-14 02:32:00,
2013-05-13 22:42:00,47.6,34.0,29.98,SSW,208,0.0,0.0,59,0.00,,,0.00,0,Wunderground v.1.15,2013-05-14 02:42:00,
2013-05-13 22:52:00,47.3,34.9,29.98,SSW,208,0.0,4.0,62,0.00,,,0.00,0,Wunderground v.1.15,2013-05-14 02:52:00,
2013-05-13 23:02:00,46.8,36.0,29.97,SSW,208,0.0,4.0,66,0.00,,,0.00,0,Wunderground v.1.15,2013-05-14 03:02:00,
2013-05-13 23:12:00,46.0,35.7,29.98,SSW,208,0.0,0.0,67,0.00,,,0.00,0,Wunderground v.1.15,2013-05-14 03:12:00,
2013-05-13 23:22:00,45.2,35.3,29.98,SSW,208,0.0,0.0,68,0.00,,,0.00,0,Wunderground v.1.15,2013-05-14 03:22:00,
2013-05-13 23:32:00,44.4,35.6,29.98,SSW,208,0.0,0.0,71,0.00,,,0.00,0,Wunderground v.1.15,2013-05-14 03:32:00,
2013-05-13 23:42:00,43.8,36.7,29.98,SSW,208,0.0,0.0,76,0.00,,,0.00,0,Wunderground v.1.15,2013-05-14 03:42:00,
2013-05-13 23:50:00,42.9,36.5,29.98,SSW,208,0.0,3.0,78,0.00,,,0.00,0,Wunderground v.1.15,2013-05-14 03:50:00,
2013-05-13 23:52:00,43.3,35.9,29.98,SSW,208,0.0,3.0,75,0.00,,,0.00,0,Wunderground v.1.15,2013-05-14 03:52:00,